Time;durP1;ratioP1;P1;durP2;ratioP2;P2;SDS_P1;SDS_P2;PMS_P1;PMS_P2;Temp;Humidity;BMP_temperature;BMP_pressure;BME280_temperature;BME280_humidity;BME280_pressure;Samples;Min_cycle;Max_cycle;Signal;HPM_P1;HPM_P2
2021/01/27 00:01:58;;;;;;;4.43;4.00;;;;;;;3.21;68.96;98405.91;5038051;28;20029;-77
2021/01/27 00:04:23;;;;;;;5.40;3.87;;;;;;;2.97;69.30;98386.56;5037564;28;20064;-77
2021/01/27 00:06:48;;;;;;;5.30;4.07;;;;;;;2.94;69.56;98379.06;5037467;28;20064;-77
2021/01/27 00:09:14;;;;;;;4.60;3.90;;;;;;;3.23;69.62;98425.63;5061043;23;20049;-77
2021/01/27 00:11:40;;;;;;;6.53;4.40;;;;;;;3.09;69.65;98390.53;5041418;28;20435;-78
2021/01/27 00:14:05;;;;;;;6.60;4.80;;;;;;;2.94;68.90;98355.59;5072568;23;20187;-78
2021/01/27 00:16:30;;;;;;;5.53;4.33;;;;;;;3.34;69.10;98425.31;5040735;28;20071;-77
2021/01/27 00:18:56;;;;;;;5.57;4.30;;;;;;;3.22;69.75;98439.66;5078340;28;20054;-77
2021/01/27 00:21:21;;;;;;;4.97;4.47;;;;;;;3.14;69.59;98409.16;5079088;28;20032;-77
2021/01/27 00:23:47;;;;;;;5.10;4.60;;;;;;;2.22;69.41;98265.75;5061152;28;20028;-77
2021/01/27 00:26:12;;;;;;;4.60;4.20;;;;;;;3.26;69.54;98435.75;5060747;28;20021;-78
2021/01/27 00:28:37;;;;;;;4.40;4.00;;;;;;;3.23;69.64;98438.66;5078404;28;20316;-77
2021/01/27 00:31:03;;;;;;;5.10;3.70;;;;;;;2.91;69.76;98397.63;5078582;28;20035;-77
2021/01/27 00:33:28;;;;;;;5.57;4.47;;;;;;;2.65;69.45;98332.53;5059377;28;20055;-77
2021/01/27 00:35:53;;;;;;;5.43;4.87;;;;;;;2.68;69.15;98334.84;5076569;28;20028;-77
2021/01/27 00:38:22;;;;;;;5.03;4.20;;;;;;;2.87;69.32;98362.41;5076160;28;20039;-77
2021/01/27 00:40:48;;;;;;;7.10;5.50;;;;;;;3.27;69.11;98421.72;5075862;28;20055;-76
2021/01/27 00:43:15;;;;;;;5.80;4.57;;;;;;;2.74;69.29;98336.00;5075481;28;20028;-77
2021/01/27 00:45:40;;;;;;;6.60;4.43;;;;;;;2.85;70.55;98388.66;5057702;28;20048;-77
2021/01/27 00:48:07;;;;;;;6.90;4.90;;;;;;;2.86;70.24;98379.03;5075943;28;20097;-76
2021/01/27 00:50:32;;;;;;;5.90;4.77;;;;;;;3.13;70.01;98396.25;5075546;28;20033;-77
2021/01/27 00:52:58;;;;;;;6.37;4.80;;;;;;;2.30;69.47;98259.78;5058543;28;20040;-76
2021/01/27 00:55:27;;;;;;;5.63;4.73;;;;;;;3.09;70.11;98389.72;5076456;28;20035;-76
2021/01/27 00:57:53;;;;;;;8.07;5.57;;;;;;;3.05;70.39;98396.25;5076756;28;20434;-77
2021/01/27 01:00:27;;;;;;;7.43;5.07;;;;;;;2.30;70.75;98280.63;5075439;28;20036;-77
2021/01/27 01:02:53;;;;;;;6.53;5.67;;;;;;;2.81;70.41;98370.88;5077072;28;20059;-77
2021/01/27 01:05:41;;;;;;;7.73;5.47;;;;;;;2.85;70.08;98359.97;5077467;28;20025;-77
2021/01/27 01:08:09;;;;;;;7.03;5.47;;;;;;;3.02;70.54;98392.16;5059727;28;20043;-77
2021/01/27 01:10:43;;;;;;;6.40;5.00;;;;;;;2.68;71.46;98332.22;5077442;28;20028;-78
2021/01/27 01:13:12;;;;;;;6.43;5.27;;;;;;;3.05;70.40;98380.59;5059649;28;20039;-76
2021/01/27 01:15:38;;;;;;;7.10;5.50;;;;;;;2.44;70.10;98273.03;5076588;28;20470;-77
2021/01/27 01:18:03;;;;;;;7.97;5.60;;;;;;;2.73;70.69;98345.59;5076083;28;20109;-77
2021/01/27 01:20:29;;;;;;;7.07;6.00;;;;;;;2.92;70.01;98359.34;5058444;28;20438;-77
2021/01/27 01:22:57;;;;;;;5.67;5.03;;;;;;;3.04;70.15;98373.75;5058488;28;20090;-77
2021/01/27 01:25:24;;;;;;;7.00;5.27;;;;;;;2.88;70.45;98348.41;5059365;28;20082;-77
2021/01/27 01:27:50;;;;;;;7.20;5.17;;;;;;;2.82;70.07;98357.69;5058614;28;20398;-77
2021/01/27 01:30:22;;;;;;;8.57;6.07;;;;;;;2.58;70.12;98325.50;5078163;28;20062;-77
2021/01/27 01:32:47;;;;;;;6.65;5.88;;;;;;;2.71;70.27;98299.81;5079989;28;20028;-78
2021/01/27 01:35:15;;;;;;;7.10;5.37;;;;;;;2.16;70.89;98216.91;5080954;28;20074;-76
2021/01/27 01:37:44;;;;;;;7.73;6.07;;;;;;;3.08;70.34;98386.31;5081646;28;20030;-78
2021/01/27 01:40:12;;;;;;;7.20;5.97;;;;;;;2.84;70.30;98328.84;5073924;23;20048;-79
